createdAt,value
2018-11-14T00:01:20.315Z,5.08
2018-11-14T00:03:49.472Z,6.37
2018-11-14T00:06:18.635Z,5.05
2018-11-14T00:08:47.807Z,6.53
2018-11-14T00:11:17.007Z,5.15
2018-11-14T00:13:46.157Z,4.28
2018-11-14T00:16:15.365Z,4.78
2018-11-14T00:18:44.580Z,5.80
2018-11-14T00:21:13.749Z,5.65
2018-11-14T00:23:42.903Z,4.95
2018-11-14T00:26:12.083Z,6.08
2018-11-14T00:28:41.224Z,7.87
2018-11-14T00:31:10.411Z,8.68
2018-11-14T00:33:39.600Z,11.20
2018-11-14T00:36:08.805Z,12.95
2018-11-14T00:38:37.951Z,11.03
2018-11-14T00:41:07.112Z,8.38
2018-11-14T00:43:36.273Z,9.48
2018-11-14T00:46:05.598Z,4.40
2018-11-14T00:48:34.744Z,6.22
2018-11-14T00:51:03.907Z,5.97
2018-11-14T00:53:33.059Z,5.17
2018-11-14T00:56:02.210Z,6.00
2018-11-14T00:58:31.352Z,5.62
2018-11-14T01:01:00.511Z,5.80
2018-11-14T01:03:29.666Z,5.70
2018-11-14T01:05:58.842Z,5.03
2018-11-14T01:08:28.041Z,5.62
2018-11-14T01:10:57.194Z,6.95
2018-11-14T01:13:26.340Z,5.58
2018-11-14T01:15:55.499Z,7.20
2018-11-14T01:18:24.645Z,5.83
2018-11-14T01:20:53.818Z,5.92
2018-11-14T01:23:22.966Z,6.42
2018-11-14T01:25:52.152Z,5.78
2018-11-14T01:28:21.307Z,6.45
2018-11-14T01:30:50.477Z,6.08
2018-11-14T01:33:19.627Z,5.00
2018-11-14T01:35:48.837Z,7.05
2018-11-14T01:38:17.983Z,5.03
2018-11-14T01:40:47.141Z,5.30
2018-11-14T01:43:16.293Z,5.03
2018-11-14T01:45:45.428Z,5.72
2018-11-14T01:48:14.607Z,7.58
2018-11-14T01:50:43.800Z,7.90
2018-11-14T01:53:12.968Z,7.90
2018-11-14T01:55:42.092Z,8.08
2018-11-14T01:58:11.260Z,8.00
2018-11-14T02:00:40.393Z,7.87
2018-11-14T02:03:09.598Z,9.55
2018-11-14T02:05:38.748Z,8.90
2018-11-14T02:08:07.911Z,8.75
2018-11-14T02:10:37.072Z,8.75
2018-11-14T02:13:06.688Z,7.45
2018-11-14T02:15:35.922Z,8.25
2018-11-14T02:18:05.491Z,7.55
2018-11-14T02:20:34.635Z,6.58
2018-11-14T02:23:03.844Z,8.50
2018-11-14T02:25:33.559Z,7.25
2018-11-14T02:28:02.750Z,4.58
2018-11-14T02:30:31.885Z,7.05
2018-11-14T02:33:01.027Z,4.90
2018-11-14T02:35:30.169Z,5.85
2018-11-14T02:37:59.340Z,4.70
2018-11-14T02:40:28.496Z,4.37
2018-11-14T02:42:57.664Z,5.75
2018-11-14T02:45:26.808Z,6.58
2018-11-14T02:47:56.020Z,4.55
2018-11-14T02:50:25.163Z,5.33
2018-11-14T02:52:54.338Z,5.40
2018-11-14T02:55:23.515Z,5.05
2018-11-14T02:57:52.694Z,5.50
2018-11-14T03:00:22.457Z,3.95
2018-11-14T03:02:51.705Z,6.20
2018-11-14T03:05:20.865Z,7.17
2018-11-14T03:07:50.074Z,4.70
2018-11-14T03:10:20.776Z,4.70
2018-11-14T03:12:50.101Z,5.87
2018-11-14T03:15:23.474Z,4.95
2018-11-14T03:17:52.676Z,5.50
2018-11-14T03:20:22.487Z,6.83
2018-11-14T03:22:51.739Z,5.45
2018-11-14T03:25:20.892Z,6.42
2018-11-14T03:27:50.063Z,5.45
2018-11-14T03:30:19.489Z,4.95
2018-11-14T03:32:48.657Z,5.85
2018-11-14T03:35:17.845Z,6.83
2018-11-14T03:37:47.028Z,6.70
2018-11-14T03:40:17.179Z,5.25
2018-11-14T03:42:46.409Z,6.00
2018-11-14T03:45:16.005Z,5.10
2018-11-14T03:47:51.779Z,4.25
2018-11-14T03:50:20.939Z,5.70
2018-11-14T03:52:50.109Z,7.15
2018-11-14T03:55:19.271Z,5.35
2018-11-14T03:57:48.436Z,5.30
2018-11-14T04:00:17.591Z,5.85
2018-11-14T04:02:47.446Z,6.37
2018-11-14T04:05:16.621Z,6.20
2018-11-14T04:07:45.813Z,5.10
2018-11-14T04:10:15.431Z,5.40
2018-11-14T04:12:44.749Z,5.72
2018-11-14T04:15:14.875Z,6.72
2018-11-14T04:17:44.137Z,4.92
2018-11-14T04:20:14.672Z,8.25
2018-11-14T04:22:50.483Z,7.53
2018-11-14T04:25:20.559Z,5.65
2018-11-14T04:27:50.074Z,5.10
2018-11-14T04:30:22.320Z,7.95
2018-11-14T04:32:51.643Z,7.30
2018-11-14T04:35:21.326Z,6.22
2018-11-14T04:37:50.651Z,6.50
2018-11-14T04:40:21.932Z,5.37
2018-11-14T04:42:51.103Z,5.80
2018-11-14T04:45:25.386Z,5.90
2018-11-14T04:47:54.597Z,4.87
2018-11-14T04:50:26.748Z,5.75
2018-11-14T04:52:56.284Z,6.08
2018-11-14T04:55:26.371Z,5.75
2018-11-14T04:57:55.584Z,7.05
2018-11-14T05:00:26.331Z,6.22
2018-11-14T05:02:55.507Z,7.65
2018-11-14T05:05:25.330Z,6.47
2018-11-14T05:07:54.498Z,4.80
2018-11-14T05:10:25.036Z,5.08
2018-11-14T05:12:54.295Z,5.30
2018-11-14T05:15:24.663Z,6.55
2018-11-14T05:17:54.279Z,5.75
2018-11-14T05:20:23.671Z,8.45
2018-11-14T05:22:53.095Z,7.60
2018-11-14T05:25:22.246Z,7.58
2018-11-14T05:27:51.426Z,5.85
2018-11-14T05:30:22.005Z,6.37
2018-11-14T05:32:51.727Z,7.17
2018-11-14T05:35:20.897Z,6.30
2018-11-14T05:37:50.422Z,8.30
2018-11-14T05:40:21.855Z,7.53
2018-11-14T05:42:52.461Z,7.42
2018-11-14T05:45:23.967Z,7.83
2018-11-14T05:47:53.254Z,7.97
2018-11-14T05:50:23.149Z,8.10
2018-11-14T05:52:52.467Z,8.05
2018-11-14T05:55:21.635Z,8.25
2018-11-14T05:57:50.811Z,9.45
2018-11-14T06:00:25.379Z,8.80
2018-11-14T06:02:54.558Z,6.10
2018-11-14T06:05:23.727Z,7.47
2018-11-14T06:07:52.960Z,6.37
2018-11-14T06:10:22.135Z,7.25
2018-11-14T06:12:51.390Z,7.55
2018-11-14T06:15:21.314Z,9.70
2018-11-14T06:17:51.732Z,10.23
2018-11-14T06:20:22.851Z,11.35
2018-11-14T06:22:52.726Z,15.25
2018-11-14T06:25:34.923Z,15.25
2018-11-14T06:28:05.275Z,13.03
2018-11-14T06:30:35.176Z,10.63
2018-11-14T06:33:05.507Z,13.93
2018-11-14T06:35:35.246Z,13.50
2018-11-14T06:38:04.506Z,13.43
2018-11-14T06:40:33.920Z,11.33
2018-11-14T06:43:03.084Z,10.70
2018-11-14T06:45:33.179Z,8.28
2018-11-14T06:48:03.044Z,10.48
2018-11-14T06:50:32.230Z,12.03
2018-11-14T06:53:03.785Z,11.35
2018-11-14T06:55:33.100Z,11.35
2018-11-14T06:58:02.493Z,13.88
2018-11-14T07:00:33.550Z,13.03
2018-11-14T07:03:04.125Z,12.07
2018-11-14T07:05:33.413Z,12.73
2018-11-14T07:08:02.526Z,14.70
2018-11-14T07:10:33.217Z,9.53
2018-11-14T07:13:08.535Z,10.03
2018-11-14T07:15:38.161Z,9.80
2018-11-14T07:18:08.556Z,10.13
2018-11-14T07:20:39.296Z,10.63
2018-11-14T07:23:08.516Z,9.75
2018-11-14T07:25:37.711Z,12.65
2018-11-14T07:28:06.931Z,8.90
2018-11-14T07:30:36.708Z,10.58
2018-11-14T07:33:07.429Z,10.75
2018-11-14T07:35:36.744Z,10.55
2018-11-14T07:38:44.147Z,11.35
2018-11-14T07:41:17.413Z,16.93
2018-11-14T07:43:46.617Z,17.48
2018-11-14T07:46:16.108Z,15.00
2018-11-14T07:48:46.366Z,15.75
2018-11-14T07:51:15.810Z,20.60
2018-11-14T07:53:45.000Z,14.13
2018-11-14T07:56:14.123Z,11.40
2018-11-14T07:58:43.295Z,13.60
2018-11-14T08:01:13.127Z,11.45
2018-11-14T08:03:42.320Z,16.45
2018-11-14T08:06:11.647Z,14.90
2018-11-14T08:08:41.012Z,14.15
2018-11-14T08:11:10.364Z,17.67
2018-11-14T08:13:41.010Z,16.23
2018-11-14T08:16:10.177Z,13.30
2018-11-14T08:18:39.419Z,14.58
2018-11-14T08:21:08.784Z,17.07
2018-11-14T08:23:37.979Z,13.22
2018-11-14T08:26:07.188Z,13.13
2018-11-14T08:28:36.335Z,16.80
2018-11-14T08:31:05.583Z,15.48
2018-11-14T08:33:34.731Z,16.45
2018-11-14T08:36:03.928Z,21.40
2018-11-14T08:38:33.113Z,16.15
2018-11-14T08:41:02.324Z,14.95
2018-11-14T08:43:31.504Z,15.30
2018-11-14T08:46:00.743Z,17.02
2018-11-14T08:48:29.915Z,14.20
2018-11-14T08:50:59.143Z,16.27
2018-11-14T08:53:28.327Z,13.78
2018-11-14T08:55:57.543Z,15.03
2018-11-14T08:58:26.737Z,14.38
2018-11-14T09:00:55.949Z,15.95
2018-11-14T09:03:25.119Z,18.00
2018-11-14T09:05:54.328Z,14.73
2018-11-14T09:08:23.503Z,14.83
2018-11-14T09:10:52.720Z,15.25
2018-11-14T09:13:21.895Z,17.80
2018-11-14T09:15:51.119Z,15.32
2018-11-14T09:18:20.509Z,16.23
2018-11-14T09:20:49.656Z,14.55
2018-11-14T09:23:18.843Z,12.68
2018-11-14T09:25:48.032Z,12.15
2018-11-14T09:28:17.210Z,13.93
2018-11-14T09:30:46.390Z,13.35
2018-11-14T09:33:15.628Z,15.32
2018-11-14T09:35:44.762Z,14.93
2018-11-14T09:38:14.017Z,15.50
2018-11-14T09:40:43.214Z,13.00
2018-11-14T09:43:12.406Z,15.88
2018-11-14T09:45:41.584Z,13.58
2018-11-14T09:48:10.753Z,15.30
2018-11-14T09:50:39.969Z,14.75
2018-11-14T09:53:09.214Z,12.80
2018-11-14T09:55:38.331Z,12.05
2018-11-14T09:58:07.488Z,12.90
2018-11-14T10:00:36.710Z,11.18
2018-11-14T10:03:13.420Z,12.47
2018-11-14T10:05:42.649Z,14.15
2018-11-14T10:08:11.796Z,12.07
2018-11-14T10:10:40.973Z,12.65
2018-11-14T10:13:10.160Z,14.47
2018-11-14T10:15:39.457Z,13.93
2018-11-14T10:18:08.510Z,12.50
2018-11-14T10:20:37.774Z,12.63
2018-11-14T10:23:07.087Z,13.98
2018-11-14T10:25:36.271Z,15.48
2018-11-14T10:28:05.611Z,12.35
2018-11-14T10:30:34.789Z,13.32
2018-11-14T10:33:03.980Z,19.77
2018-11-14T10:35:33.171Z,15.85
2018-11-14T10:38:02.308Z,15.70
2018-11-14T10:40:31.483Z,13.40
2018-11-14T10:43:00.680Z,11.83
2018-11-14T10:45:29.855Z,11.93
2018-11-14T10:47:59.123Z,13.43
2018-11-14T10:50:28.499Z,15.32
2018-11-14T10:52:57.660Z,13.15
2018-11-14T10:55:26.835Z,14.05
2018-11-14T10:57:56.023Z,12.85
2018-11-14T11:00:32.369Z,12.50
2018-11-14T11:03:07.819Z,15.03
2018-11-14T11:05:42.353Z,11.40
2018-11-14T11:08:17.361Z,15.20
2018-11-14T11:11:53.701Z,15.00
2018-11-14T11:14:28.150Z,16.77
2018-11-14T11:17:02.588Z,11.15
2018-11-14T11:19:32.416Z,11.10
2018-11-14T11:22:01.598Z,13.18
2018-11-14T11:24:30.799Z,12.98
2018-11-14T11:26:59.979Z,13.05
2018-11-14T11:29:29.237Z,15.23
2018-11-14T11:31:58.481Z,12.98
2018-11-14T11:34:27.611Z,13.55
2018-11-14T11:36:56.796Z,12.10
2018-11-14T11:39:25.955Z,11.68
2018-11-14T11:41:55.142Z,12.25
2018-11-14T11:44:24.317Z,12.50
2018-11-14T11:46:53.547Z,10.68
2018-11-14T11:49:22.720Z,10.95
2018-11-14T11:51:51.884Z,11.00
2018-11-14T11:54:34.361Z,12.05
2018-11-14T11:57:03.538Z,12.15
2018-11-14T11:59:32.756Z,10.40
2018-11-14T12:02:02.015Z,14.38
2018-11-14T12:04:31.789Z,14.58
2018-11-14T12:07:01.011Z,12.55
2018-11-14T12:09:30.195Z,11.35
2018-11-14T12:11:59.376Z,9.70
2018-11-14T12:14:28.547Z,10.93
2018-11-14T12:16:57.751Z,12.10
2018-11-14T12:19:26.887Z,11.73
2018-11-14T12:21:56.068Z,11.95
2018-11-14T12:24:25.227Z,11.73
2018-11-14T12:26:54.429Z,11.30
2018-11-14T12:29:23.648Z,9.53
2018-11-14T12:31:52.834Z,10.95
2018-11-14T12:34:22.009Z,14.55
2018-11-14T12:36:51.228Z,11.65
2018-11-14T12:39:20.397Z,11.15
2018-11-14T12:41:49.577Z,9.70
2018-11-14T12:44:18.854Z,8.55
2018-11-14T12:46:48.067Z,8.60
2018-11-14T12:49:17.381Z,8.88
2018-11-14T12:51:46.593Z,8.75
2018-11-14T12:54:15.835Z,7.65
2018-11-14T12:56:45.032Z,8.85
2018-11-14T12:59:14.234Z,9.13
2018-11-14T13:01:43.439Z,8.15
2018-11-14T13:04:12.764Z,9.28
2018-11-14T13:06:41.936Z,7.75
2018-11-14T13:09:11.347Z,7.03
2018-11-14T13:11:40.546Z,6.67
2018-11-14T13:14:09.716Z,8.58
2018-11-14T13:16:38.899Z,6.15
2018-11-14T13:19:08.071Z,6.87
2018-11-14T13:21:37.301Z,6.53
2018-11-14T13:24:06.536Z,6.03
2018-11-14T13:26:35.792Z,6.28
2018-11-14T13:29:05.070Z,5.53
2018-11-14T13:31:34.185Z,7.35
2018-11-14T13:34:03.364Z,5.05
2018-11-14T13:36:32.582Z,5.90
2018-11-14T13:39:01.777Z,6.15
2018-11-14T13:41:30.983Z,4.72
2018-11-14T13:44:00.170Z,4.30
2018-11-14T13:46:29.372Z,5.08
2018-11-14T13:48:58.633Z,5.22
2018-11-14T13:51:27.788Z,5.33
2018-11-14T13:53:57.040Z,8.88
2018-11-14T13:56:26.208Z,5.35
2018-11-14T13:58:55.389Z,6.03
2018-11-14T14:01:24.656Z,4.65
2018-11-14T14:03:53.799Z,6.15
2018-11-14T14:06:22.979Z,5.42
2018-11-14T14:08:52.175Z,5.83
2018-11-14T14:11:21.327Z,5.12
2018-11-14T14:13:55.924Z,6.60
2018-11-14T14:16:25.127Z,5.55
2018-11-14T14:18:54.314Z,7.25
2018-11-14T14:21:23.476Z,6.45
2018-11-14T14:23:52.761Z,5.92
2018-11-14T14:26:21.917Z,5.37
2018-11-14T14:28:51.172Z,6.40
2018-11-14T14:31:20.369Z,6.53
2018-11-14T14:33:50.148Z,8.15
2018-11-14T14:36:19.738Z,8.33
2018-11-14T14:38:49.094Z,7.33
2018-11-14T14:41:18.347Z,7.85
2018-11-14T14:43:47.544Z,6.05
2018-11-14T14:46:16.747Z,7.70
2018-11-14T14:48:46.007Z,6.90
2018-11-14T14:51:15.160Z,5.80
2018-11-14T14:53:44.332Z,8.28
2018-11-14T14:56:13.566Z,7.67
2018-11-14T14:58:42.704Z,6.95
2018-11-14T15:01:11.871Z,7.00
2018-11-14T15:03:41.127Z,6.55
2018-11-14T15:06:10.295Z,8.25
2018-11-14T15:08:39.474Z,7.78
2018-11-14T15:11:08.615Z,6.85
2018-11-14T15:13:37.767Z,6.35
2018-11-14T15:16:06.911Z,7.55
2018-11-14T15:18:36.286Z,8.85
2018-11-14T15:21:07.251Z,6.85
2018-11-14T15:23:36.424Z,10.60
2018-11-14T15:26:05.590Z,7.47
2018-11-14T15:28:34.838Z,6.47
2018-11-14T15:31:04.044Z,7.12
2018-11-14T15:33:33.237Z,8.10
2018-11-14T15:36:03.638Z,6.28
2018-11-14T15:38:32.827Z,7.95
2018-11-14T15:41:01.976Z,6.78
2018-11-14T15:43:31.182Z,8.20
2018-11-14T15:46:00.364Z,8.85
2018-11-14T15:48:29.582Z,8.98
2018-11-14T15:50:58.714Z,9.48
2018-11-14T15:53:27.972Z,8.43
2018-11-14T15:55:57.175Z,9.03
2018-11-14T15:58:26.321Z,8.03
2018-11-14T16:00:55.480Z,8.20
2018-11-14T16:03:24.668Z,7.65
2018-11-14T16:05:53.866Z,8.30
2018-11-14T16:08:23.036Z,10.25
2018-11-14T16:10:52.178Z,8.18
2018-11-14T16:13:21.340Z,8.95
2018-11-14T16:15:50.476Z,7.80
2018-11-14T16:18:19.738Z,10.35
2018-11-14T16:20:48.867Z,9.75
2018-11-14T16:23:18.171Z,8.95
2018-11-14T16:25:47.346Z,9.33
2018-11-14T16:28:16.500Z,9.43
2018-11-14T16:30:45.651Z,9.75
2018-11-14T16:33:14.835Z,9.45
2018-11-14T16:35:43.969Z,10.23
2018-11-14T16:38:13.189Z,7.97
2018-11-14T16:40:42.295Z,9.20
2018-11-14T16:43:11.448Z,8.23
2018-11-14T16:45:40.604Z,10.40
2018-11-14T16:48:09.766Z,9.40
2018-11-14T16:50:38.895Z,8.90
2018-11-14T16:53:08.264Z,8.13
2018-11-14T16:55:37.525Z,9.40
2018-11-14T16:58:06.866Z,8.68
2018-11-14T17:00:36.057Z,8.70
2018-11-14T17:03:05.312Z,10.58
2018-11-14T17:05:34.481Z,11.28
2018-11-14T17:08:03.643Z,9.55
2018-11-14T17:10:32.815Z,11.20
2018-11-14T17:13:02.536Z,13.35
2018-11-14T17:15:31.680Z,9.65
2018-11-14T17:18:00.859Z,9.70
2018-11-14T17:20:30.046Z,10.30
2018-11-14T17:22:59.201Z,8.58
2018-11-14T17:25:28.416Z,8.98
2018-11-14T17:27:57.599Z,8.68
2018-11-14T17:30:27.845Z,10.38
2018-11-14T17:32:57.028Z,9.63
2018-11-14T17:35:26.236Z,10.08
2018-11-14T17:37:55.423Z,10.03
2018-11-14T17:40:26.995Z,9.98
2018-11-14T17:42:56.247Z,10.70
2018-11-14T17:45:28.924Z,12.47
2018-11-14T17:47:58.555Z,13.88
2018-11-14T17:50:32.056Z,11.97
2018-11-14T17:53:01.982Z,11.88
2018-11-14T17:55:31.585Z,11.70
2018-11-14T17:58:01.087Z,12.23
2018-11-14T18:00:31.109Z,11.28
2018-11-14T18:03:00.498Z,12.05
2018-11-14T18:05:30.760Z,12.45
2018-11-14T18:07:59.928Z,14.40
2018-11-14T18:10:30.185Z,13.50
2018-11-14T18:13:00.465Z,14.03
2018-11-14T18:15:29.888Z,12.35
2018-11-14T18:17:59.283Z,12.40
2018-11-14T18:20:29.807Z,11.95
2018-11-14T18:22:59.314Z,12.15
2018-11-14T18:25:28.493Z,13.58
2018-11-14T18:27:57.810Z,15.83
2018-11-14T18:30:28.341Z,12.90
2018-11-14T18:32:58.342Z,15.72
2018-11-14T18:35:27.965Z,13.32
2018-11-14T18:37:58.183Z,15.65
2018-11-14T18:40:28.951Z,13.28
2018-11-14T18:42:58.171Z,12.50
2018-11-14T18:45:29.094Z,12.30
2018-11-14T18:47:59.452Z,13.88
2018-11-14T18:50:29.800Z,16.15
2018-11-14T18:53:00.163Z,12.20
2018-11-14T18:55:30.931Z,18.77
2018-11-14T18:58:00.973Z,13.90
2018-11-14T19:00:31.321Z,14.90
2018-11-14T19:03:00.797Z,12.63
2018-11-14T19:05:30.587Z,12.55
2018-11-14T19:08:00.017Z,13.08
2018-11-14T19:10:32.131Z,13.60
2018-11-14T19:13:02.072Z,15.08
2018-11-14T19:15:32.659Z,15.03
2018-11-14T19:18:02.415Z,16.07
2018-11-14T19:20:32.755Z,12.47
2018-11-14T19:23:02.725Z,11.55
2018-11-14T19:25:33.346Z,12.85
2018-11-14T19:28:02.539Z,13.62
2018-11-14T19:30:32.936Z,14.63
2018-11-14T19:33:02.672Z,14.98
2018-11-14T19:35:31.952Z,14.18
2018-11-14T19:38:01.528Z,13.93
2018-11-14T19:40:33.925Z,15.98
2018-11-14T19:43:04.948Z,14.43
2018-11-14T19:45:35.492Z,16.62
2018-11-14T19:48:04.697Z,15.48
2018-11-14T19:50:33.982Z,17.60
2018-11-14T19:53:03.480Z,15.13
2018-11-14T19:55:33.274Z,15.35
2018-11-14T19:58:03.510Z,15.75
2018-11-14T20:00:34.985Z,12.93
2018-11-14T20:03:04.261Z,15.25
2018-11-14T20:05:33.500Z,14.80
2018-11-14T20:08:02.672Z,13.00
2018-11-14T20:10:33.087Z,13.85
2018-11-14T20:13:02.252Z,15.28
2018-11-14T20:15:32.831Z,13.03
2018-11-14T20:18:02.078Z,15.72
2018-11-14T20:20:33.576Z,14.50
2018-11-14T20:23:02.951Z,14.35
2018-11-14T20:25:33.463Z,13.03
2018-11-14T20:28:02.652Z,13.53
2018-11-14T20:30:36.178Z,14.05
2018-11-14T20:33:07.969Z,13.80
2018-11-14T20:35:37.203Z,10.75
2018-11-14T20:38:06.820Z,16.30
2018-11-14T20:40:39.788Z,15.15
2018-11-14T20:43:08.935Z,16.70
2018-11-14T20:45:38.331Z,17.37
2018-11-14T20:48:07.515Z,17.57
2018-11-14T20:50:36.672Z,16.55
2018-11-14T20:53:06.050Z,17.57
2018-11-14T20:55:35.817Z,15.38
2018-11-14T20:58:04.954Z,14.85
2018-11-14T21:00:36.390Z,18.17
2018-11-14T21:03:06.610Z,15.13
2018-11-14T21:05:35.912Z,15.63
2018-11-14T21:08:06.940Z,15.43
2018-11-14T21:10:36.374Z,14.33
2018-11-14T21:13:06.354Z,15.45
2018-11-14T21:15:36.904Z,15.50
2018-11-14T21:18:06.317Z,16.05
2018-11-14T21:20:35.500Z,16.87
2018-11-14T21:23:04.912Z,14.33
2018-11-14T21:25:33.943Z,15.38
2018-11-14T21:28:05.789Z,12.95
2018-11-14T21:30:34.988Z,16.48
2018-11-14T21:33:04.157Z,13.88
2018-11-14T21:35:38.611Z,14.53
2018-11-14T21:38:12.988Z,17.07
2018-11-14T21:40:45.185Z,16.82
2018-11-14T21:43:15.810Z,15.25
2018-11-14T21:45:46.043Z,16.30
2018-11-14T21:48:17.465Z,16.55
2018-11-14T21:50:47.163Z,16.48
2018-11-14T21:53:16.433Z,14.70
2018-11-14T21:55:45.553Z,15.50
2018-11-14T21:58:14.707Z,15.25
2018-11-14T22:00:43.855Z,15.80
2018-11-14T22:03:12.989Z,17.25
2018-11-14T22:05:42.170Z,16.42
2018-11-14T22:08:11.348Z,15.53
2018-11-14T22:10:40.533Z,15.30
2018-11-14T22:13:09.680Z,15.75
2018-11-14T22:15:38.892Z,16.23
2018-11-14T22:18:08.065Z,14.93
2018-11-14T22:20:37.258Z,15.95
2018-11-14T22:23:06.416Z,13.28
2018-11-14T22:25:35.602Z,14.80
2018-11-14T22:28:04.851Z,17.62
2018-11-14T22:30:34.727Z,15.38
2018-11-14T22:33:03.883Z,16.82
2018-11-14T22:35:33.546Z,15.93
2018-11-14T22:38:02.773Z,16.37
2018-11-14T22:40:32.647Z,14.03
2018-11-14T22:43:01.814Z,16.20
2018-11-14T22:45:32.357Z,16.10
2018-11-14T22:48:01.636Z,15.48
2018-11-14T22:50:30.787Z,16.65
2018-11-14T22:53:00.032Z,18.37
2018-11-14T22:55:29.252Z,16.73
2018-11-14T22:57:58.456Z,16.90
2018-11-14T23:00:42.064Z,17.87
2018-11-14T23:03:11.235Z,16.67
2018-11-14T23:05:40.432Z,17.40
2018-11-14T23:08:09.601Z,17.45
2018-11-14T23:10:38.751Z,17.55
2018-11-14T23:13:07.961Z,16.45
2018-11-14T23:15:37.201Z,17.32
2018-11-14T23:18:06.805Z,18.27
2018-11-14T23:20:35.955Z,19.17
2018-11-14T23:23:05.607Z,18.50
2018-11-14T23:25:34.755Z,20.25
2018-11-14T23:28:04.769Z,20.68
2018-11-14T23:30:33.923Z,19.57
2018-11-14T23:33:03.095Z,19.35
2018-11-14T23:35:32.813Z,19.20
2018-11-14T23:38:03.184Z,20.15
2018-11-14T23:40:32.353Z,20.00
2018-11-14T23:43:01.731Z,22.00
2018-11-14T23:45:31.637Z,21.87
2018-11-14T23:48:00.841Z,21.05
2018-11-14T23:50:31.251Z,20.88
2018-11-14T23:53:01.313Z,22.35
2018-11-14T23:55:31.188Z,19.73
2018-11-14T23:58:00.903Z,19.37
